Weather at Cascais Airport

Public forecast

Using degrees Celsius for public forecast. Weather courtesy of forecast.io.

Current aviation weather report (METAR) for Cascais Airport

Retrieved 2020/10/20 20:00 UTC (2 hours ago):

LPCS 202000Z 23005KT 210V280 9999 FEW010 SCT020 15/14 Q0999

Closest aviation forecast (TAF) to Cascais Airport

Forecast is more than 12 hours old.

Closest forecast is Sintra Air Base, 6.4 nm (11.9 km) N. Retrieved 2020/09/20 09:00 UTC (1 month ago):

TAF LPST 200801Z 2009/2018 VRB02KT 9999 FEW008 SCT025 BECMG 2009/2011 32010KT